sensor_id;sensor_type;location;lat;lon;timestamp;temperature;humidity
42019;DHT22;27703;51.980;5.848;2023-11-19T00:00:30;12.70;99.90
42019;DHT22;27703;51.980;5.848;2023-11-19T00:02:55;12.70;99.90
42019;DHT22;27703;51.980;5.848;2023-11-19T00:05:21;12.70;99.90
42019;DHT22;27703;51.980;5.848;2023-11-19T00:07:46;12.70;99.90
42019;DHT22;27703;51.980;5.848;2023-11-19T00:10:13;12.80;99.90
42019;DHT22;27703;51.980;5.848;2023-11-19T00:12:44;12.80;99.90
42019;DHT22;27703;51.980;5.848;2023-11-19T00:15:11;12.80;99.90
42019;DHT22;27703;51.980;5.848;2023-11-19T00:17:44;12.80;99.90
42019;DHT22;27703;51.980;5.848;2023-11-19T00:20:15;12.80;99.90
42019;DHT22;27703;51.980;5.848;2023-11-19T00:22:41;12.90;99.90
42019;DHT22;27703;51.980;5.848;2023-11-19T00:25:11;12.80;99.90
42019;DHT22;27703;51.980;5.848;2023-11-19T00:27:36;12.90;99.90
42019;DHT22;27703;51.980;5.848;2023-11-19T00:30:06;12.90;99.90
42019;DHT22;27703;51.980;5.848;2023-11-19T00:32:34;12.90;99.90
42019;DHT22;27703;51.980;5.848;2023-11-19T00:35:00;12.90;99.90
42019;DHT22;27703;51.980;5.848;2023-11-19T00:37:26;12.90;99.90
42019;DHT22;27703;51.980;5.848;2023-11-19T00:39:51;12.90;99.90
42019;DHT22;27703;51.980;5.848;2023-11-19T00:42:17;12.90;99.90
42019;DHT22;27703;51.980;5.848;2023-11-19T00:44:43;12.90;99.90
42019;DHT22;27703;51.980;5.848;2023-11-19T00:47:08;12.90;99.90
42019;DHT22;27703;51.980;5.848;2023-11-19T00:49:34;12.90;99.90
42019;DHT22;27703;51.980;5.848;2023-11-19T00:52:00;12.90;99.90
42019;DHT22;27703;51.980;5.848;2023-11-19T00:54:27;12.90;99.90
42019;DHT22;27703;51.980;5.848;2023-11-19T00:56:53;13.00;99.90
42019;DHT22;27703;51.980;5.848;2023-11-19T00:59:19;13.00;99.90
42019;DHT22;27703;51.980;5.848;2023-11-19T01:01:44;13.00;99.90
42019;DHT22;27703;51.980;5.848;2023-11-19T01:04:10;13.00;99.90
42019;DHT22;27703;51.980;5.848;2023-11-19T01:06:36;13.00;99.90
42019;DHT22;27703;51.980;5.848;2023-11-19T01:09:01;13.00;99.90
42019;DHT22;27703;51.980;5.848;2023-11-19T01:11:27;13.00;99.90
42019;DHT22;27703;51.980;5.848;2023-11-19T01:13:53;13.00;99.90
42019;DHT22;27703;51.980;5.848;2023-11-19T01:16:19;13.10;99.90
42019;DHT22;27703;51.980;5.848;2023-11-19T01:18:47;13.10;99.90
42019;DHT22;27703;51.980;5.848;2023-11-19T01:21:12;13.10;99.90
42019;DHT22;27703;51.980;5.848;2023-11-19T01:23:40;13.10;99.90
42019;DHT22;27703;51.980;5.848;2023-11-19T01:26:05;13.10;99.90
42019;DHT22;27703;51.980;5.848;2023-11-19T01:28:31;13.10;99.90
42019;DHT22;27703;51.980;5.848;2023-11-19T01:30:57;13.10;99.90
42019;DHT22;27703;51.980;5.848;2023-11-19T01:33:22;13.20;99.90
42019;DHT22;27703;51.980;5.848;2023-11-19T01:35:48;13.20;99.90
42019;DHT22;27703;51.980;5.848;2023-11-19T01:38:13;13.20;99.90
42019;DHT22;27703;51.980;5.848;2023-11-19T01:40:39;13.20;99.90
42019;DHT22;27703;51.980;5.848;2023-11-19T01:43:05;13.20;99.90
42019;DHT22;27703;51.980;5.848;2023-11-19T01:45:31;13.20;99.90
42019;DHT22;27703;51.980;5.848;2023-11-19T01:48:00;13.20;99.90
42019;DHT22;27703;51.980;5.848;2023-11-19T01:50:27;13.30;99.90
42019;DHT22;27703;51.980;5.848;2023-11-19T01:52:54;13.20;99.90
42019;DHT22;27703;51.980;5.848;2023-11-19T01:55:20;13.20;99.90
42019;DHT22;27703;51.980;5.848;2023-11-19T01:57:48;13.20;99.90
42019;DHT22;27703;51.980;5.848;2023-11-19T02:00:15;13.20;99.90
42019;DHT22;27703;51.980;5.848;2023-11-19T02:02:42;13.20;99.90
42019;DHT22;27703;51.980;5.848;2023-11-19T02:05:09;13.20;99.90
42019;DHT22;27703;51.980;5.848;2023-11-19T02:07:35;13.20;99.90
42019;DHT22;27703;51.980;5.848;2023-11-19T02:10:01;13.20;99.90
42019;DHT22;27703;51.980;5.848;2023-11-19T02:12:31;13.20;99.90
42019;DHT22;27703;51.980;5.848;2023-11-19T02:14:59;13.10;99.90
42019;DHT22;27703;51.980;5.848;2023-11-19T02:17:29;13.20;99.90
42019;DHT22;27703;51.980;5.848;2023-11-19T02:19:57;13.20;99.90
42019;DHT22;27703;51.980;5.848;2023-11-19T02:22:22;13.20;99.90
42019;DHT22;27703;51.980;5.848;2023-11-19T02:24:54;13.20;99.90
42019;DHT22;27703;51.980;5.848;2023-11-19T02:27:51;13.20;99.90
42019;DHT22;27703;51.980;5.848;2023-11-19T02:30:21;13.20;99.90
42019;DHT22;27703;51.980;5.848;2023-11-19T02:32:46;13.20;99.90
42019;DHT22;27703;51.980;5.848;2023-11-19T02:35:13;13.20;99.90
42019;DHT22;27703;51.980;5.848;2023-11-19T02:37:39;13.20;99.90
42019;DHT22;27703;51.980;5.848;2023-11-19T02:40:05;13.10;99.90
42019;DHT22;27703;51.980;5.848;2023-11-19T02:42:31;13.10;99.90
42019;DHT22;27703;51.980;5.848;2023-11-19T02:44:57;13.10;99.90
42019;DHT22;27703;51.980;5.848;2023-11-19T02:47:22;13.10;99.90
42019;DHT22;27703;51.980;5.848;2023-11-19T02:49:49;13.10;99.90
42019;DHT22;27703;51.980;5.848;2023-11-19T02:52:15;13.10;99.90
42019;DHT22;27703;51.980;5.848;2023-11-19T02:54:42;13.00;99.90
42019;DHT22;27703;51.980;5.848;2023-11-19T02:57:08;13.00;99.90
42019;DHT22;27703;51.980;5.848;2023-11-19T02:59:38;13.00;99.90
42019;DHT22;27703;51.980;5.848;2023-11-19T03:02:05;13.00;99.90
42019;DHT22;27703;51.980;5.848;2023-11-19T03:04:37;13.00;99.90
42019;DHT22;27703;51.980;5.848;2023-11-19T03:07:06;13.00;99.90
42019;DHT22;27703;51.980;5.848;2023-11-19T03:09:35;13.00;99.90
42019;DHT22;27703;51.980;5.848;2023-11-19T03:12:01;13.00;99.90
42019;DHT22;27703;51.980;5.848;2023-11-19T03:14:27;12.90;99.90
42019;DHT22;27703;51.980;5.848;2023-11-19T03:16:53;12.90;99.90
42019;DHT22;27703;51.980;5.848;2023-11-19T03:19:18;12.90;99.90
42019;DHT22;27703;51.980;5.848;2023-11-19T03:21:44;12.80;99.90
42019;DHT22;27703;51.980;5.848;2023-11-19T03:24:10;12.80;99.90
42019;DHT22;27703;51.980;5.848;2023-11-19T03:26:38;12.80;99.90
42019;DHT22;27703;51.980;5.848;2023-11-19T03:29:03;12.80;99.90
42019;DHT22;27703;51.980;5.848;2023-11-19T03:31:29;12.80;99.90
42019;DHT22;27703;51.980;5.848;2023-11-19T03:33:54;12.70;99.90
42019;DHT22;27703;51.980;5.848;2023-11-19T03:36:20;12.70;99.90
42019;DHT22;27703;51.980;5.848;2023-11-19T03:38:45;12.70;99.90
42019;DHT22;27703;51.980;5.848;2023-11-19T03:41:12;12.70;99.90
42019;DHT22;27703;51.980;5.848;2023-11-19T03:43:39;12.70;99.90
42019;DHT22;27703;51.980;5.848;2023-11-19T03:46:15;12.60;99.90
42019;DHT22;27703;51.980;5.848;2023-11-19T03:48:40;12.60;99.90
42019;DHT22;27703;51.980;5.848;2023-11-19T03:51:06;12.60;99.90
42019;DHT22;27703;51.980;5.848;2023-11-19T03:53:32;12.50;99.90
42019;DHT22;27703;51.980;5.848;2023-11-19T03:55:57;12.50;99.90
42019;DHT22;27703;51.980;5.848;2023-11-19T03:58:24;12.40;99.90
42019;DHT22;27703;51.980;5.848;2023-11-19T04:00:49;12.40;99.90
42019;DHT22;27703;51.980;5.848;2023-11-19T04:03:15;12.30;99.90
42019;DHT22;27703;51.980;5.848;2023-11-19T04:05:40;12.30;99.90
42019;DHT22;27703;51.980;5.848;2023-11-19T04:08:06;12.20;99.90
42019;DHT22;27703;51.980;5.848;2023-11-19T04:10:31;12.20;99.90
42019;DHT22;27703;51.980;5.848;2023-11-19T04:12:57;12.20;99.90
42019;DHT22;27703;51.980;5.848;2023-11-19T04:15:23;12.10;99.90
42019;DHT22;27703;51.980;5.848;2023-11-19T04:17:49;12.10;99.90
42019;DHT22;27703;51.980;5.848;2023-11-19T04:20:14;12.10;99.90
42019;DHT22;27703;51.980;5.848;2023-11-19T04:22:40;12.00;99.90
42019;DHT22;27703;51.980;5.848;2023-11-19T04:25:06;12.10;99.90
42019;DHT22;27703;51.980;5.848;2023-11-19T04:27:32;12.00;99.90
42019;DHT22;27703;51.980;5.848;2023-11-19T04:29:58;12.00;99.90
42019;DHT22;27703;51.980;5.848;2023-11-19T04:32:23;12.00;99.90
42019;DHT22;27703;51.980;5.848;2023-11-19T04:34:50;12.00;99.90
42019;DHT22;27703;51.980;5.848;2023-11-19T04:37:16;11.90;99.90
42019;DHT22;27703;51.980;5.848;2023-11-19T04:39:44;11.90;99.90
42019;DHT22;27703;51.980;5.848;2023-11-19T04:42:09;11.90;99.90
42019;DHT22;27703;51.980;5.848;2023-11-19T04:44:35;11.90;99.90
42019;DHT22;27703;51.980;5.848;2023-11-19T04:47:01;11.90;99.90
42019;DHT22;27703;51.980;5.848;2023-11-19T04:49:26;11.90;99.90
42019;DHT22;27703;51.980;5.848;2023-11-19T04:51:52;11.90;99.90
42019;DHT22;27703;51.980;5.848;2023-11-19T04:54:19;11.90;99.90
42019;DHT22;27703;51.980;5.848;2023-11-19T04:56:47;11.80;99.90
42019;DHT22;27703;51.980;5.848;2023-11-19T04:59:13;11.80;99.90
42019;DHT22;27703;51.980;5.848;2023-11-19T05:01:38;11.90;99.90
42019;DHT22;27703;51.980;5.848;2023-11-19T05:04:04;11.90;99.90
42019;DHT22;27703;51.980;5.848;2023-11-19T05:06:30;11.80;99.90
42019;DHT22;27703;51.980;5.848;2023-11-19T05:08:57;11.80;99.90
42019;DHT22;27703;51.980;5.848;2023-11-19T05:11:23;11.80;99.90
42019;DHT22;27703;51.980;5.848;2023-11-19T05:13:49;11.80;99.90
42019;DHT22;27703;51.980;5.848;2023-11-19T05:16:15;11.80;99.90
42019;DHT22;27703;51.980;5.848;2023-11-19T05:18:41;11.80;99.90
42019;DHT22;27703;51.980;5.848;2023-11-19T05:21:07;11.80;99.90
42019;DHT22;27703;51.980;5.848;2023-11-19T05:23:33;11.80;99.90
42019;DHT22;27703;51.980;5.848;2023-11-19T05:26:00;11.80;99.90
42019;DHT22;27703;51.980;5.848;2023-11-19T05:28:26;11.80;99.90
42019;DHT22;27703;51.980;5.848;2023-11-19T05:30:51;11.80;99.90
42019;DHT22;27703;51.980;5.848;2023-11-19T05:33:17;11.80;99.90
42019;DHT22;27703;51.980;5.848;2023-11-19T05:35:43;11.90;99.90
42019;DHT22;27703;51.980;5.848;2023-11-19T05:38:08;11.90;99.90
42019;DHT22;27703;51.980;5.848;2023-11-19T05:40:35;11.90;99.90
42019;DHT22;27703;51.980;5.848;2023-11-19T05:43:00;11.90;99.90
42019;DHT22;27703;51.980;5.848;2023-11-19T05:45:26;11.90;99.90
42019;DHT22;27703;51.980;5.848;2023-11-19T05:47:52;11.90;99.90
42019;DHT22;27703;51.980;5.848;2023-11-19T05:50:18;11.90;99.90
42019;DHT22;27703;51.980;5.848;2023-11-19T05:52:43;11.90;99.90
42019;DHT22;27703;51.980;5.848;2023-11-19T05:55:09;11.90;99.90
42019;DHT22;27703;51.980;5.848;2023-11-19T05:57:38;11.90;99.90
42019;DHT22;27703;51.980;5.848;2023-11-19T06:00:05;11.90;99.90
42019;DHT22;27703;51.980;5.848;2023-11-19T06:02:32;11.80;99.90
42019;DHT22;27703;51.980;5.848;2023-11-19T06:04:58;11.80;99.90
42019;DHT22;27703;51.980;5.848;2023-11-19T06:07:23;11.80;99.90
42019;DHT22;27703;51.980;5.848;2023-11-19T06:09:50;11.80;99.90
42019;DHT22;27703;51.980;5.848;2023-11-19T06:12:16;11.90;99.90
42019;DHT22;27703;51.980;5.848;2023-11-19T06:14:41;11.80;99.90
42019;DHT22;27703;51.980;5.848;2023-11-19T06:17:07;11.90;99.90
42019;DHT22;27703;51.980;5.848;2023-11-19T06:19:34;11.80;99.90
42019;DHT22;27703;51.980;5.848;2023-11-19T06:21:59;11.80;99.90
42019;DHT22;27703;51.980;5.848;2023-11-19T06:24:25;11.80;99.90
42019;DHT22;27703;51.980;5.848;2023-11-19T06:26:50;11.80;99.90
42019;DHT22;27703;51.980;5.848;2023-11-19T06:29:16;11.80;99.90
42019;DHT22;27703;51.980;5.848;2023-11-19T06:31:44;11.70;99.90
42019;DHT22;27703;51.980;5.848;2023-11-19T06:34:10;11.70;99.90
42019;DHT22;27703;51.980;5.848;2023-11-19T06:36:36;11.70;99.90
42019;DHT22;27703;51.980;5.848;2023-11-19T06:39:01;11.70;99.90
42019;DHT22;27703;51.980;5.848;2023-11-19T06:41:27;11.70;99.90
42019;DHT22;27703;51.980;5.848;2023-11-19T06:43:54;11.70;99.90
42019;DHT22;27703;51.980;5.848;2023-11-19T06:46:20;11.60;99.90
42019;DHT22;27703;51.980;5.848;2023-11-19T06:48:45;11.60;99.90
42019;DHT22;27703;51.980;5.848;2023-11-19T06:51:12;11.60;99.90
42019;DHT22;27703;51.980;5.848;2023-11-19T06:53:37;11.60;99.90
42019;DHT22;27703;51.980;5.848;2023-11-19T06:56:05;11.50;99.90
42019;DHT22;27703;51.980;5.848;2023-11-19T06:58:35;11.50;99.90
42019;DHT22;27703;51.980;5.848;2023-11-19T07:01:01;11.60;99.90
42019;DHT22;27703;51.980;5.848;2023-11-19T07:03:26;11.60;99.90
42019;DHT22;27703;51.980;5.848;2023-11-19T07:05:52;11.60;99.90
42019;DHT22;27703;51.980;5.848;2023-11-19T07:08:17;11.60;99.90
42019;DHT22;27703;51.980;5.848;2023-11-19T07:10:43;11.60;99.90
42019;DHT22;27703;51.980;5.848;2023-11-19T07:13:08;11.60;99.90
42019;DHT22;27703;51.980;5.848;2023-11-19T07:15:35;11.60;99.90
42019;DHT22;27703;51.980;5.848;2023-11-19T07:18:00;11.60;99.90
42019;DHT22;27703;51.980;5.848;2023-11-19T07:20:26;11.60;99.90
42019;DHT22;27703;51.980;5.848;2023-11-19T07:22:52;11.70;99.90
42019;DHT22;27703;51.980;5.848;2023-11-19T07:25:17;11.70;99.90
42019;DHT22;27703;51.980;5.848;2023-11-19T07:27:43;11.70;99.90
42019;DHT22;27703;51.980;5.848;2023-11-19T07:30:09;11.70;99.90
42019;DHT22;27703;51.980;5.848;2023-11-19T07:32:34;11.70;99.90
42019;DHT22;27703;51.980;5.848;2023-11-19T07:35:00;11.70;99.90
42019;DHT22;27703;51.980;5.848;2023-11-19T07:37:26;11.70;99.90
42019;DHT22;27703;51.980;5.848;2023-11-19T07:39:51;11.70;99.90
42019;DHT22;27703;51.980;5.848;2023-11-19T07:42:17;11.70;99.90
42019;DHT22;27703;51.980;5.848;2023-11-19T07:44:46;11.70;99.90
42019;DHT22;27703;51.980;5.848;2023-11-19T07:47:11;11.70;99.90
42019;DHT22;27703;51.980;5.848;2023-11-19T07:49:38;11.70;99.90
42019;DHT22;27703;51.980;5.848;2023-11-19T07:52:04;11.70;99.90
42019;DHT22;27703;51.980;5.848;2023-11-19T07:54:29;11.70;99.90
42019;DHT22;27703;51.980;5.848;2023-11-19T07:56:55;11.80;99.90
42019;DHT22;27703;51.980;5.848;2023-11-19T07:59:21;11.80;99.90
42019;DHT22;27703;51.980;5.848;2023-11-19T08:01:46;11.80;99.90
42019;DHT22;27703;51.980;5.848;2023-11-19T08:04:13;11.80;99.90
42019;DHT22;27703;51.980;5.848;2023-11-19T08:06:39;11.90;99.90
42019;DHT22;27703;51.980;5.848;2023-11-19T08:09:05;11.90;99.90
42019;DHT22;27703;51.980;5.848;2023-11-19T08:11:32;11.90;99.90
42019;DHT22;27703;51.980;5.848;2023-11-19T08:13:57;12.00;99.90
42019;DHT22;27703;51.980;5.848;2023-11-19T08:16:23;12.00;99.90
42019;DHT22;27703;51.980;5.848;2023-11-19T08:18:48;12.00;99.90
42019;DHT22;27703;51.980;5.848;2023-11-19T08:21:14;12.00;99.90
42019;DHT22;27703;51.980;5.848;2023-11-19T08:23:40;12.00;99.90
42019;DHT22;27703;51.980;5.848;2023-11-19T08:26:06;12.00;99.90
42019;DHT22;27703;51.980;5.848;2023-11-19T08:28:31;12.00;99.90
42019;DHT22;27703;51.980;5.848;2023-11-19T08:30:59;12.10;99.90
42019;DHT22;27703;51.980;5.848;2023-11-19T08:33:26;12.20;99.90
42019;DHT22;27703;51.980;5.848;2023-11-19T08:35:51;12.20;99.90
42019;DHT22;27703;51.980;5.848;2023-11-19T08:38:17;12.20;99.90
42019;DHT22;27703;51.980;5.848;2023-11-19T08:40:42;12.20;99.90
42019;DHT22;27703;51.980;5.848;2023-11-19T08:43:08;12.20;99.90
42019;DHT22;27703;51.980;5.848;2023-11-19T08:45:33;12.20;99.90
42019;DHT22;27703;51.980;5.848;2023-11-19T08:47:59;12.20;99.90
42019;DHT22;27703;51.980;5.848;2023-11-19T08:50:24;12.20;99.90
42019;DHT22;27703;51.980;5.848;2023-11-19T08:52:52;12.30;99.90
42019;DHT22;27703;51.980;5.848;2023-11-19T08:55:18;12.30;99.90
42019;DHT22;27703;51.980;5.848;2023-11-19T08:57:43;12.30;99.90
42019;DHT22;27703;51.980;5.848;2023-11-19T09:00:09;12.30;99.90
42019;DHT22;27703;51.980;5.848;2023-11-19T09:02:35;12.40;99.90
42019;DHT22;27703;51.980;5.848;2023-11-19T09:05:02;12.40;99.90
42019;DHT22;27703;51.980;5.848;2023-11-19T09:07:28;12.40;99.90
42019;DHT22;27703;51.980;5.848;2023-11-19T09:09:54;12.40;99.90
42019;DHT22;27703;51.980;5.848;2023-11-19T09:12:19;12.50;99.90
42019;DHT22;27703;51.980;5.848;2023-11-19T09:14:45;12.50;99.90
42019;DHT22;27703;51.980;5.848;2023-11-19T09:17:11;12.50;99.90
42019;DHT22;27703;51.980;5.848;2023-11-19T09:19:37;12.50;99.90
42019;DHT22;27703;51.980;5.848;2023-11-19T09:22:02;12.50;99.90
42019;DHT22;27703;51.980;5.848;2023-11-19T09:24:28;12.50;99.90
42019;DHT22;27703;51.980;5.848;2023-11-19T09:26:53;12.50;99.90
42019;DHT22;27703;51.980;5.848;2023-11-19T09:29:20;12.60;99.90
42019;DHT22;27703;51.980;5.848;2023-11-19T09:31:46;12.60;99.90
42019;DHT22;27703;51.980;5.848;2023-11-19T09:34:12;12.60;99.90
42019;DHT22;27703;51.980;5.848;2023-11-19T09:36:37;12.60;99.90
42019;DHT22;27703;51.980;5.848;2023-11-19T09:39:03;12.60;99.90
42019;DHT22;27703;51.980;5.848;2023-11-19T09:41:30;12.70;99.90
42019;DHT22;27703;51.980;5.848;2023-11-19T09:43:56;12.70;99.90
42019;DHT22;27703;51.980;5.848;2023-11-19T09:46:22;12.70;99.90
42019;DHT22;27703;51.980;5.848;2023-11-19T09:48:52;12.70;99.90
42019;DHT22;27703;51.980;5.848;2023-11-19T09:51:20;12.70;99.90
42019;DHT22;27703;51.980;5.848;2023-11-19T09:53:45;12.70;99.90
42019;DHT22;27703;51.980;5.848;2023-11-19T09:56:12;12.70;99.90
42019;DHT22;27703;51.980;5.848;2023-11-19T09:58:37;12.70;99.90
42019;DHT22;27703;51.980;5.848;2023-11-19T10:01:03;12.80;99.90
42019;DHT22;27703;51.980;5.848;2023-11-19T10:03:35;12.80;99.90
42019;DHT22;27703;51.980;5.848;2023-11-19T10:06:04;12.90;99.90
42019;DHT22;27703;51.980;5.848;2023-11-19T10:08:32;12.90;99.90
42019;DHT22;27703;51.980;5.848;2023-11-19T10:10:57;12.90;99.90
42019;DHT22;27703;51.980;5.848;2023-11-19T10:13:30;12.90;99.90
42019;DHT22;27703;51.980;5.848;2023-11-19T10:15:56;12.90;99.90
42019;DHT22;27703;51.980;5.848;2023-11-19T10:18:28;12.90;99.90
42019;DHT22;27703;51.980;5.848;2023-11-19T10:20:53;12.80;99.90
42019;DHT22;27703;51.980;5.848;2023-11-19T10:23:20;12.80;99.90
42019;DHT22;27703;51.980;5.848;2023-11-19T10:25:46;12.80;99.90
42019;DHT22;27703;51.980;5.848;2023-11-19T10:28:11;12.80;99.90
42019;DHT22;27703;51.980;5.848;2023-11-19T10:30:41;12.80;99.90
42019;DHT22;27703;51.980;5.848;2023-11-19T10:33:12;12.80;99.90
42019;DHT22;27703;51.980;5.848;2023-11-19T10:35:57;12.90;99.90
42019;DHT22;27703;51.980;5.848;2023-11-19T10:38:23;12.90;99.90
42019;DHT22;27703;51.980;5.848;2023-11-19T10:40:50;12.90;99.90
42019;DHT22;27703;51.980;5.848;2023-11-19T10:43:19;12.90;99.90
42019;DHT22;27703;51.980;5.848;2023-11-19T10:45:45;12.90;99.90
42019;DHT22;27703;51.980;5.848;2023-11-19T10:48:10;13.00;99.90
42019;DHT22;27703;51.980;5.848;2023-11-19T10:50:42;13.20;99.90
42019;DHT22;27703;51.980;5.848;2023-11-19T10:53:09;13.20;99.90
42019;DHT22;27703;51.980;5.848;2023-11-19T10:55:36;13.30;99.90
42019;DHT22;27703;51.980;5.848;2023-11-19T10:58:05;13.40;99.90
42019;DHT22;27703;51.980;5.848;2023-11-19T11:00:54;13.60;99.90
42019;DHT22;27703;51.980;5.848;2023-11-19T11:03:24;13.70;99.90
42019;DHT22;27703;51.980;5.848;2023-11-19T11:05:51;13.70;99.90
42019;DHT22;27703;51.980;5.848;2023-11-19T11:08:19;13.60;99.90
42019;DHT22;27703;51.980;5.848;2023-11-19T11:10:53;13.60;99.90
42019;DHT22;27703;51.980;5.848;2023-11-19T11:13:19;13.70;99.90
42019;DHT22;27703;51.980;5.848;2023-11-19T11:15:45;13.70;99.90
42019;DHT22;27703;51.980;5.848;2023-11-19T11:18:13;13.80;99.90
42019;DHT22;27703;51.980;5.848;2023-11-19T11:20:39;13.80;99.90
42019;DHT22;27703;51.980;5.848;2023-11-19T11:37:26;13.70;99.90
42019;DHT22;27703;51.980;5.848;2023-11-19T11:39:53;13.70;99.90
42019;DHT22;27703;51.980;5.848;2023-11-19T11:45:04;13.60;99.90
42019;DHT22;27703;51.980;5.848;2023-11-19T11:50:09;13.60;99.90
42019;DHT22;27703;51.980;5.848;2023-11-19T11:55:25;13.70;99.90
42019;DHT22;27703;51.980;5.848;2023-11-19T11:57:51;13.70;99.90
42019;DHT22;27703;51.980;5.848;2023-11-19T12:02:55;13.60;99.90
42019;DHT22;27703;51.980;5.848;2023-11-19T12:05:21;13.50;99.90
42019;DHT22;27703;51.980;5.848;2023-11-19T12:07:59;13.50;99.90
42019;DHT22;27703;51.980;5.848;2023-11-19T12:10:25;13.60;99.90
42019;DHT22;27703;51.980;5.848;2023-11-19T12:12:58;13.70;99.90
42019;DHT22;27703;51.980;5.848;2023-11-19T12:15:24;13.90;99.90
42019;DHT22;27703;51.980;5.848;2023-11-19T12:17:52;14.00;99.90
42019;DHT22;27703;51.980;5.848;2023-11-19T12:20:19;14.00;99.90
42019;DHT22;27703;51.980;5.848;2023-11-19T12:22:47;13.90;99.90
42019;DHT22;27703;51.980;5.848;2023-11-19T12:25:15;13.90;99.90
42019;DHT22;27703;51.980;5.848;2023-11-19T12:27:49;13.90;99.90
42019;DHT22;27703;51.980;5.848;2023-11-19T12:30:21;13.90;99.90
42019;DHT22;27703;51.980;5.848;2023-11-19T12:32:48;14.10;99.90
42019;DHT22;27703;51.980;5.848;2023-11-19T12:35:14;14.10;99.90
42019;DHT22;27703;51.980;5.848;2023-11-19T12:37:47;14.20;99.90
42019;DHT22;27703;51.980;5.848;2023-11-19T12:40:25;14.20;99.90
42019;DHT22;27703;51.980;5.848;2023-11-19T12:42:52;14.20;99.90
42019;DHT22;27703;51.980;5.848;2023-11-19T12:45:18;14.20;99.90
42019;DHT22;27703;51.980;5.848;2023-11-19T12:47:46;14.30;99.90
42019;DHT22;27703;51.980;5.848;2023-11-19T12:50:18;14.30;99.90
42019;DHT22;27703;51.980;5.848;2023-11-19T12:52:57;14.40;99.90
42019;DHT22;27703;51.980;5.848;2023-11-19T12:55:32;14.40;99.90
42019;DHT22;27703;51.980;5.848;2023-11-19T12:57:58;14.30;99.90
42019;DHT22;27703;51.980;5.848;2023-11-19T13:00:25;14.30;99.90
42019;DHT22;27703;51.980;5.848;2023-11-19T13:02:53;14.20;99.90
42019;DHT22;27703;51.980;5.848;2023-11-19T13:05:32;14.20;99.90
42019;DHT22;27703;51.980;5.848;2023-11-19T13:08:09;14.30;99.90
42019;DHT22;27703;51.980;5.848;2023-11-19T13:10:52;14.40;99.90
42019;DHT22;27703;51.980;5.848;2023-11-19T13:13:18;14.40;99.90
42019;DHT22;27703;51.980;5.848;2023-11-19T13:15:44;14.30;99.90
42019;DHT22;27703;51.980;5.848;2023-11-19T13:18:10;14.30;99.90
42019;DHT22;27703;51.980;5.848;2023-11-19T13:20:36;14.20;99.90
42019;DHT22;27703;51.980;5.848;2023-11-19T13:23:04;14.10;99.90
42019;DHT22;27703;51.980;5.848;2023-11-19T13:25:31;14.00;99.90
42019;DHT22;27703;51.980;5.848;2023-11-19T13:27:57;13.90;99.90
42019;DHT22;27703;51.980;5.848;2023-11-19T13:30:23;13.90;99.90
42019;DHT22;27703;51.980;5.848;2023-11-19T13:32:49;13.80;99.90
42019;DHT22;27703;51.980;5.848;2023-11-19T13:35:16;13.80;99.90
42019;DHT22;27703;51.980;5.848;2023-11-19T13:37:43;13.80;99.90
42019;DHT22;27703;51.980;5.848;2023-11-19T13:40:09;13.80;99.90
42019;DHT22;27703;51.980;5.848;2023-11-19T13:42:36;13.80;99.90
42019;DHT22;27703;51.980;5.848;2023-11-19T13:45:03;13.70;99.90
42019;DHT22;27703;51.980;5.848;2023-11-19T13:47:28;13.70;99.90
42019;DHT22;27703;51.980;5.848;2023-11-19T13:49:54;13.60;99.90
42019;DHT22;27703;51.980;5.848;2023-11-19T13:52:19;13.60;99.90
42019;DHT22;27703;51.980;5.848;2023-11-19T13:54:45;13.60;99.90
42019;DHT22;27703;51.980;5.848;2023-11-19T13:57:10;13.60;99.90
42019;DHT22;27703;51.980;5.848;2023-11-19T13:59:39;13.50;99.90
42019;DHT22;27703;51.980;5.848;2023-11-19T14:02:06;13.50;99.90
42019;DHT22;27703;51.980;5.848;2023-11-19T14:04:33;13.40;99.90
42019;DHT22;27703;51.980;5.848;2023-11-19T14:06:58;13.40;99.90
42019;DHT22;27703;51.980;5.848;2023-11-19T14:09:24;13.30;99.90
42019;DHT22;27703;51.980;5.848;2023-11-19T14:11:49;13.30;99.90
42019;DHT22;27703;51.980;5.848;2023-11-19T14:14:16;13.30;99.90
42019;DHT22;27703;51.980;5.848;2023-11-19T14:16:42;13.20;99.90
42019;DHT22;27703;51.980;5.848;2023-11-19T14:19:07;13.20;99.90
42019;DHT22;27703;51.980;5.848;2023-11-19T14:21:33;13.30;99.90
42019;DHT22;27703;51.980;5.848;2023-11-19T14:23:58;13.30;99.90
42019;DHT22;27703;51.980;5.848;2023-11-19T14:26:24;13.40;99.90
42019;DHT22;27703;51.980;5.848;2023-11-19T14:28:50;13.30;99.90
42019;DHT22;27703;51.980;5.848;2023-11-19T14:31:15;13.30;99.90
42019;DHT22;27703;51.980;5.848;2023-11-19T14:33:41;13.30;99.90
42019;DHT22;27703;51.980;5.848;2023-11-19T14:36:06;13.30;99.90
42019;DHT22;27703;51.980;5.848;2023-11-19T14:38:32;13.20;99.90
42019;DHT22;27703;51.980;5.848;2023-11-19T14:40:58;13.20;99.90
42019;DHT22;27703;51.980;5.848;2023-11-19T14:43:25;13.10;99.90
42019;DHT22;27703;51.980;5.848;2023-11-19T14:45:50;13.10;99.90
42019;DHT22;27703;51.980;5.848;2023-11-19T14:48:16;13.00;99.90
42019;DHT22;27703;51.980;5.848;2023-11-19T14:50:43;13.00;99.90
42019;DHT22;27703;51.980;5.848;2023-11-19T14:53:10;12.90;99.90
42019;DHT22;27703;51.980;5.848;2023-11-19T14:55:35;12.90;99.90
42019;DHT22;27703;51.980;5.848;2023-11-19T14:58:01;12.80;99.90
42019;DHT22;27703;51.980;5.848;2023-11-19T15:00:26;12.80;99.90
42019;DHT22;27703;51.980;5.848;2023-11-19T15:02:52;12.70;99.90
42019;DHT22;27703;51.980;5.848;2023-11-19T15:05:17;12.80;99.90
42019;DHT22;27703;51.980;5.848;2023-11-19T15:07:43;12.70;99.90
42019;DHT22;27703;51.980;5.848;2023-11-19T15:10:09;12.70;99.90
42019;DHT22;27703;51.980;5.848;2023-11-19T15:12:39;12.60;99.90
42019;DHT22;27703;51.980;5.848;2023-11-19T15:15:09;12.70;99.90
42019;DHT22;27703;51.980;5.848;2023-11-19T15:17:41;12.60;99.90
42019;DHT22;27703;51.980;5.848;2023-11-19T15:20:07;12.60;99.90
42019;DHT22;27703;51.980;5.848;2023-11-19T15:22:33;12.60;99.90
42019;DHT22;27703;51.980;5.848;2023-11-19T15:24:58;12.60;99.90
42019;DHT22;27703;51.980;5.848;2023-11-19T15:27:24;12.60;99.90
42019;DHT22;27703;51.980;5.848;2023-11-19T15:29:49;12.60;99.90
42019;DHT22;27703;51.980;5.848;2023-11-19T15:32:15;12.60;99.90
42019;DHT22;27703;51.980;5.848;2023-11-19T15:34:40;12.60;99.90
42019;DHT22;27703;51.980;5.848;2023-11-19T15:37:07;12.60;99.90
42019;DHT22;27703;51.980;5.848;2023-11-19T15:39:33;12.60;99.90
42019;DHT22;27703;51.980;5.848;2023-11-19T15:42:01;12.70;99.90
42019;DHT22;27703;51.980;5.848;2023-11-19T15:44:26;12.70;99.90
42019;DHT22;27703;51.980;5.848;2023-11-19T15:46:53;12.70;99.90
42019;DHT22;27703;51.980;5.848;2023-11-19T15:49:19;12.70;99.90
42019;DHT22;27703;51.980;5.848;2023-11-19T15:51:44;12.70;99.90